createdAt,value
2019-02-10T00:00:24.162Z,76.88
2019-02-10T00:02:32.332Z,77.11
2019-02-10T00:04:41.821Z,77.29
2019-02-10T00:06:48.520Z,77.63
2019-02-10T00:08:57.087Z,77.90
2019-02-10T00:11:04.090Z,78.11
2019-02-10T00:13:31.645Z,77.93
2019-02-10T00:15:38.400Z,78.11
2019-02-10T00:17:45.121Z,78.23
2019-02-10T00:19:53.571Z,78.43
2019-02-10T00:22:01.650Z,78.83
2019-02-10T00:24:09.811Z,78.85
2019-02-10T00:26:16.520Z,78.93
2019-02-10T00:28:23.410Z,79.30
2019-02-10T00:30:30.288Z,79.52
2019-02-10T00:32:38.939Z,79.92
2019-02-10T00:34:46.189Z,80.40
2019-02-10T00:36:52.937Z,80.48
2019-02-10T00:38:59.419Z,80.61
2019-02-10T00:41:06.305Z,80.87
2019-02-10T00:43:14.799Z,81.21
2019-02-10T00:45:22.755Z,81.13
2019-02-10T00:47:29.585Z,81.19
2019-02-10T00:49:36.394Z,81.03
2019-02-10T00:51:43.003Z,81.07
2019-02-10T00:53:51.244Z,81.38
2019-02-10T00:55:57.935Z,81.54
2019-02-10T00:58:04.911Z,81.15
2019-02-10T01:00:12.485Z,81.14
2019-02-10T01:02:19.452Z,81.23
2019-02-10T01:04:26.416Z,81.42
2019-02-10T01:06:41.234Z,81.61
2019-02-10T01:08:42.792Z,81.57
2019-02-10T01:10:49.925Z,81.53
2019-02-10T01:12:58.425Z,81.59
2019-02-10T01:15:06.225Z,81.77
2019-02-10T01:17:12.931Z,81.80
2019-02-10T01:19:20.140Z,81.92
2019-02-10T01:21:27.045Z,81.84
2019-02-10T01:23:35.294Z,81.93
2019-02-10T01:25:42.445Z,81.98
2019-02-10T01:27:48.975Z,82.23
2019-02-10T01:29:56.295Z,82.20
2019-02-10T01:32:02.946Z,82.33
2019-02-10T01:34:09.804Z,82.31
2019-02-10T01:36:17.812Z,82.11
2019-02-10T01:38:24.494Z,82.04
2019-02-10T01:40:31.283Z,81.86
2019-02-10T01:42:39.891Z,81.55
2019-02-10T01:44:46.943Z,80.96
2019-02-10T01:46:53.612Z,80.71
2019-02-10T01:49:00.293Z,80.66
2019-02-10T01:51:06.946Z,80.78
2019-02-10T01:53:13.673Z,81.00
2019-02-10T01:55:20.405Z,81.01
2019-02-10T01:57:27.131Z,81.11
2019-02-10T01:59:35.255Z,81.18
2019-02-10T02:01:42.184Z,80.81
2019-02-10T02:03:48.941Z,80.95
2019-02-10T02:05:55.688Z,81.00
2019-02-10T02:08:02.268Z,80.95
2019-02-10T02:10:12.344Z,80.79
2019-02-10T02:12:20.441Z,80.41
2019-02-10T02:14:26.959Z,80.45
2019-02-10T02:16:33.578Z,80.46
2019-02-10T02:18:41.182Z,80.18
2019-02-10T02:20:49.528Z,80.23
2019-02-10T02:22:56.399Z,80.20
2019-02-10T02:25:06.222Z,79.91
2019-02-10T02:27:14.039Z,80.17
2019-02-10T02:29:21.101Z,80.35
2019-02-10T02:31:28.168Z,80.49
2019-02-10T02:33:36.164Z,80.66
2019-02-10T02:35:44.417Z,80.84
2019-02-10T02:37:50.929Z,80.87
2019-02-10T02:39:57.960Z,80.86
2019-02-10T02:42:04.438Z,80.85
2019-02-10T02:44:11.291Z,80.74
2019-02-10T02:46:18.576Z,80.58
2019-02-10T02:48:25.294Z,80.36
2019-02-10T02:50:32.062Z,80.08
2019-02-10T02:52:39.956Z,80.20
2019-02-10T02:54:46.448Z,80.16
2019-02-10T02:56:53.476Z,79.97
2019-02-10T02:59:00.445Z,80.02
2019-02-10T03:01:07.336Z,80.16
2019-02-10T03:03:15.551Z,80.20
2019-02-10T03:05:22.111Z,80.31
2019-02-10T03:07:28.600Z,80.36
2019-02-10T03:09:35.181Z,80.41
2019-02-10T03:11:41.795Z,80.50
2019-02-10T03:13:48.442Z,80.59
2019-02-10T03:15:56.567Z,80.70
2019-02-10T03:18:03.860Z,80.65
2019-02-10T03:20:11.583Z,80.69
2019-02-10T03:22:18.576Z,80.69
2019-02-10T03:24:25.491Z,80.69
2019-02-10T03:26:33.763Z,80.50
2019-02-10T03:28:40.833Z,80.41
2019-02-10T03:30:49.374Z,80.40
2019-02-10T03:32:57.083Z,80.36
2019-02-10T03:35:04.472Z,80.33
2019-02-10T03:37:11.465Z,80.43
2019-02-10T03:39:18.537Z,80.45
2019-02-10T03:41:25.376Z,80.51
2019-02-10T03:43:32.258Z,80.46
2019-02-10T03:45:39.183Z,80.42
2019-02-10T03:47:46.866Z,80.26
2019-02-10T03:49:53.493Z,80.28
2019-02-10T03:52:00.287Z,80.42
2019-02-10T03:54:07.205Z,80.70
2019-02-10T03:56:13.789Z,80.54
2019-02-10T03:58:20.640Z,80.65
2019-02-10T04:00:28.980Z,80.88
2019-02-10T04:02:35.729Z,81.01
2019-02-10T04:04:42.542Z,81.13
2019-02-10T04:06:52.006Z,81.50
2019-02-10T04:08:59.169Z,81.87
2019-02-10T04:11:07.619Z,81.89
2019-02-10T04:13:14.368Z,82.32
2019-02-10T04:15:21.149Z,82.41
2019-02-10T04:17:27.809Z,82.72
2019-02-10T04:19:34.486Z,82.79
2019-02-10T04:21:41.076Z,83.04
2019-02-10T04:23:49.406Z,83.14
2019-02-10T04:25:56.027Z,83.09
2019-02-10T04:28:04.168Z,83.31
2019-02-10T04:30:12.627Z,83.42
2019-02-10T04:32:19.222Z,83.69
2019-02-10T04:34:26.082Z,83.68
2019-02-10T04:36:32.973Z,83.91
2019-02-10T04:38:40.996Z,83.86
2019-02-10T04:40:49.172Z,83.99
2019-02-10T04:42:57.263Z,84.32
2019-02-10T04:45:03.938Z,84.27
2019-02-10T04:47:10.890Z,84.44
2019-02-10T04:49:18.089Z,84.54
2019-02-10T04:51:24.897Z,84.59
2019-02-10T04:53:31.784Z,84.70
2019-02-10T04:55:38.619Z,84.45
2019-02-10T04:57:46.883Z,84.68
2019-02-10T04:59:54.001Z,84.93
2019-02-10T05:02:00.902Z,84.86
2019-02-10T05:04:09.281Z,84.74
2019-02-10T05:06:16.169Z,84.83
2019-02-10T05:08:27.166Z,84.90
2019-02-10T05:10:35.077Z,84.94
2019-02-10T05:12:41.945Z,85.13
2019-02-10T05:14:48.576Z,84.85
2019-02-10T05:16:56.401Z,84.91
2019-02-10T05:19:03.286Z,85.01
2019-02-10T05:21:10.053Z,85.10
2019-02-10T05:23:16.734Z,85.33
2019-02-10T05:25:23.495Z,85.19
2019-02-10T05:27:29.994Z,85.28
2019-02-10T05:29:36.955Z,85.26
2019-02-10T05:31:43.408Z,85.46
2019-02-10T05:34:00.113Z,85.52
2019-02-10T05:36:08.015Z,85.69
2019-02-10T05:38:15.065Z,85.59
2019-02-10T05:40:23.347Z,85.42
2019-02-10T05:42:32.908Z,85.70
2019-02-10T05:44:42.993Z,85.49
2019-02-10T05:46:51.347Z,85.52
2019-02-10T05:48:58.311Z,85.69
2019-02-10T05:51:05.282Z,85.60
2019-02-10T05:53:11.883Z,85.72
2019-02-10T05:55:20.182Z,85.64
2019-02-10T05:57:27.030Z,85.79
2019-02-10T05:59:34.028Z,85.69
2019-02-10T06:02:07.805Z,85.60
2019-02-10T06:04:14.863Z,85.67
2019-02-10T06:06:21.949Z,85.68
2019-02-10T06:08:30.302Z,85.49
2019-02-10T06:10:37.204Z,85.62
2019-02-10T06:12:44.196Z,85.63
2019-02-10T06:14:54.106Z,85.85
2019-02-10T06:17:02.111Z,85.84
2019-02-10T06:19:09.399Z,85.86
2019-02-10T06:21:16.420Z,86.01
2019-02-10T06:23:30.129Z,85.93
2019-02-10T06:25:39.632Z,85.80
2019-02-10T06:27:46.310Z,85.62
2019-02-10T06:29:52.820Z,86.56
2019-02-10T06:32:00.605Z,86.80
2019-02-10T06:34:07.448Z,87.43
2019-02-10T06:36:16.735Z,84.35
2019-02-10T06:38:25.738Z,86.37
2019-02-10T06:40:33.921Z,83.58
2019-02-10T06:42:42.419Z,83.96
2019-02-10T06:44:49.055Z,84.71
2019-02-10T06:46:59.906Z,84.21
2019-02-10T06:49:26.217Z,82.91
2019-02-10T06:51:35.129Z,83.84
2019-02-10T06:53:43.122Z,81.30
2019-02-10T06:55:53.285Z,81.93
2019-02-10T06:58:00.919Z,82.56
2019-02-10T07:00:13.393Z,82.56
2019-02-10T07:02:32.478Z,82.81
2019-02-10T07:04:39.163Z,81.38
2019-02-10T07:06:46.004Z,81.30
2019-02-10T07:08:54.806Z,80.65
2019-02-10T07:11:03.485Z,80.71
2019-02-10T07:13:11.863Z,80.46
2019-02-10T07:15:46.965Z,80.66
2019-02-10T07:17:56.305Z,81.17
2019-02-10T07:20:37.218Z,81.32
2019-02-10T07:22:48.467Z,81.46
2019-02-10T07:25:00.257Z,81.55
2019-02-10T07:27:18.107Z,81.52
2019-02-10T07:30:06.936Z,81.50
2019-02-10T07:32:18.067Z,81.23
2019-02-10T07:34:55.912Z,81.21
2019-02-10T07:37:18.867Z,81.19
2019-02-10T07:40:02.436Z,81.03
2019-02-10T07:42:33.985Z,80.71
2019-02-10T07:45:15.144Z,80.60
2019-02-10T07:47:40.763Z,80.38
2019-02-10T07:50:07.295Z,80.04
2019-02-10T07:52:36.383Z,79.97
2019-02-10T07:55:22.055Z,79.47
2019-02-10T07:57:59.053Z,79.37
2019-02-10T08:00:30.433Z,79.21
2019-02-10T08:02:53.097Z,76.54
2019-02-10T08:05:35.797Z,76.10
2019-02-10T08:08:05.962Z,77.63
2019-02-10T08:10:16.968Z,77.46
2019-02-10T08:13:00.879Z,75.69
2019-02-10T08:15:21.177Z,78.60
2019-02-10T08:17:50.249Z,75.64
2019-02-10T08:20:12.915Z,74.54
2019-02-10T08:22:38.636Z,73.01
2019-02-10T08:25:08.596Z,73.86
2019-02-10T08:27:31.216Z,74.22
2019-02-10T08:29:51.466Z,72.45
2019-02-10T08:32:19.886Z,74.42
2019-02-10T08:35:02.678Z,74.43
2019-02-10T08:37:38.598Z,71.25
2019-02-10T08:40:34.238Z,70.92
2019-02-10T08:42:55.468Z,72.98
2019-02-10T08:45:27.318Z,70.67
2019-02-10T08:47:47.004Z,69.55
2019-02-10T08:50:25.036Z,71.70
2019-02-10T08:52:41.936Z,70.54
2019-02-10T08:54:49.684Z,70.57
2019-02-10T08:56:57.474Z,71.02
2019-02-10T08:59:05.277Z,70.56
2019-02-10T09:01:11.948Z,70.73
2019-02-10T09:03:19.833Z,70.68
2019-02-10T09:05:26.600Z,70.38
2019-02-10T09:07:34.446Z,70.81
2019-02-10T09:09:41.332Z,69.42
2019-02-10T09:11:48.168Z,69.79
2019-02-10T09:13:55.023Z,69.00
2019-02-10T09:16:01.851Z,68.95
2019-02-10T09:18:10.332Z,67.93
2019-02-10T09:20:17.392Z,68.30
2019-02-10T09:22:24.246Z,68.26
2019-02-10T09:24:33.690Z,68.00
2019-02-10T09:26:40.598Z,67.17
2019-02-10T09:28:47.618Z,67.26
2019-02-10T09:30:54.467Z,67.02
2019-02-10T09:33:01.087Z,66.68
2019-02-10T09:35:09.391Z,66.70
2019-02-10T09:37:17.687Z,66.02
2019-02-10T09:39:24.256Z,66.35
2019-02-10T09:41:31.417Z,66.23
2019-02-10T09:43:38.778Z,65.76
2019-02-10T09:45:45.857Z,66.25
2019-02-10T09:47:52.467Z,66.26
2019-02-10T09:49:59.228Z,66.41
2019-02-10T09:52:06.038Z,66.24
2019-02-10T09:54:14.778Z,66.61
2019-02-10T09:56:21.504Z,66.62
2019-02-10T09:58:28.277Z,66.63
2019-02-10T10:00:35.186Z,66.86
2019-02-10T10:02:42.000Z,66.87
2019-02-10T10:04:49.426Z,67.23
2019-02-10T10:06:56.445Z,66.79
2019-02-10T10:09:03.237Z,66.97
2019-02-10T10:11:09.694Z,66.73
2019-02-10T10:13:17.771Z,66.42
2019-02-10T10:15:24.530Z,66.20
2019-02-10T10:17:31.124Z,65.91
2019-02-10T10:19:37.975Z,65.74
2019-02-10T10:21:44.726Z,65.27
2019-02-10T10:23:51.716Z,66.02
2019-02-10T10:25:58.496Z,65.27
2019-02-10T10:28:05.576Z,64.67
2019-02-10T10:30:19.537Z,64.96
2019-02-10T10:32:27.245Z,65.32
2019-02-10T10:34:35.413Z,65.14
2019-02-10T10:36:42.516Z,65.32
2019-02-10T10:38:51.088Z,65.35
2019-02-10T10:40:58.446Z,64.95
2019-02-10T10:43:06.166Z,65.56
2019-02-10T10:45:17.568Z,64.96
2019-02-10T10:47:24.743Z,65.50
2019-02-10T10:49:32.146Z,65.58
2019-02-10T10:51:39.874Z,65.69
2019-02-10T10:53:47.264Z,65.50
2019-02-10T10:55:55.942Z,65.77
2019-02-10T10:58:03.184Z,65.34
2019-02-10T11:00:15.264Z,65.26
2019-02-10T11:02:22.176Z,65.22
2019-02-10T11:04:29.086Z,65.06
2019-02-10T11:06:38.073Z,65.27
2019-02-10T11:08:49.742Z,64.42
2019-02-10T11:10:57.324Z,64.60
2019-02-10T11:13:05.874Z,64.34
2019-02-10T11:15:15.474Z,65.06
2019-02-10T11:17:24.544Z,64.94
2019-02-10T11:19:31.374Z,64.82
2019-02-10T11:21:38.123Z,65.52
2019-02-10T11:23:45.093Z,65.48
2019-02-10T11:25:53.594Z,65.01
2019-02-10T11:28:00.581Z,65.01
2019-02-10T11:30:11.991Z,64.78
2019-02-10T11:32:19.754Z,64.75
2019-02-10T11:34:26.514Z,65.13
2019-02-10T11:36:33.674Z,63.99
2019-02-10T11:38:40.625Z,64.46
2019-02-10T11:40:47.854Z,63.76
2019-02-10T11:42:55.391Z,63.82
2019-02-10T11:45:02.814Z,63.59
2019-02-10T11:47:11.322Z,63.49
2019-02-10T11:49:18.104Z,63.03
2019-02-10T11:51:25.543Z,63.07
2019-02-10T11:53:32.994Z,63.23
2019-02-10T11:55:39.953Z,64.21
2019-02-10T11:57:48.001Z,63.99
2019-02-10T11:59:55.410Z,63.76
2019-02-10T12:02:02.322Z,63.72
2019-02-10T12:04:09.323Z,64.47
2019-02-10T12:06:16.349Z,64.32
2019-02-10T12:08:23.740Z,64.66
2019-02-10T12:10:31.029Z,65.52
2019-02-10T12:12:38.368Z,65.85
2019-02-10T12:14:45.840Z,64.96
2019-02-10T12:16:53.160Z,63.56
2019-02-10T12:19:01.115Z,64.02
2019-02-10T12:21:08.648Z,63.88
2019-02-10T12:23:16.148Z,64.07
2019-02-10T12:25:23.045Z,63.75
2019-02-10T12:27:30.489Z,63.00
2019-02-10T12:29:37.888Z,63.25
2019-02-10T12:31:45.410Z,62.91
2019-02-10T12:33:52.310Z,63.31
2019-02-10T12:35:59.832Z,64.12
2019-02-10T12:38:06.969Z,63.59
2019-02-10T12:40:14.381Z,63.57
2019-02-10T12:42:21.634Z,64.19
2019-02-10T12:44:29.232Z,64.37
2019-02-10T12:46:36.438Z,65.27
2019-02-10T12:48:43.573Z,65.17
2019-02-10T12:50:51.076Z,65.26
2019-02-10T12:52:58.414Z,65.36
2019-02-10T12:55:06.534Z,65.93
2019-02-10T12:57:13.914Z,65.47
2019-02-10T12:59:21.041Z,65.88
2019-02-10T13:01:28.514Z,66.12
2019-02-10T13:03:35.723Z,65.78
2019-02-10T13:05:43.165Z,65.84
2019-02-10T13:07:50.284Z,66.10
2019-02-10T13:09:57.451Z,66.42
2019-02-10T13:12:04.653Z,66.52
2019-02-10T13:14:11.814Z,66.63
2019-02-10T13:16:18.843Z,66.64
2019-02-10T13:18:26.359Z,66.75
2019-02-10T13:20:33.921Z,66.86
2019-02-10T13:22:41.388Z,66.76
2019-02-10T13:24:48.494Z,67.10
2019-02-10T13:26:55.761Z,67.11
2019-02-10T13:29:04.250Z,67.41
2019-02-10T13:31:11.200Z,67.61
2019-02-10T13:33:19.543Z,67.82
2019-02-10T13:35:26.870Z,67.99
2019-02-10T13:37:33.990Z,68.11
2019-02-10T13:39:41.077Z,68.24
2019-02-10T13:41:45.860Z,67.97
2019-02-10T13:43:52.913Z,68.12
2019-02-10T13:46:00.040Z,67.83
2019-02-10T13:48:07.640Z,68.20
2019-02-10T13:50:18.218Z,68.39
2019-02-10T13:52:25.400Z,68.63
2019-02-10T13:54:33.170Z,68.70
2019-02-10T13:56:40.680Z,68.80
2019-02-10T13:58:47.560Z,69.13
2019-02-10T14:00:55.168Z,69.32
2019-02-10T14:03:03.010Z,69.22
2019-02-10T14:05:10.350Z,69.40
2019-02-10T14:07:17.577Z,69.58
2019-02-10T14:09:24.947Z,69.57
2019-02-10T14:11:32.363Z,69.32
2019-02-10T14:13:39.578Z,69.23
2019-02-10T14:15:46.776Z,69.42
2019-02-10T14:17:53.944Z,69.15
2019-02-10T14:20:01.054Z,69.03
2019-02-10T14:22:08.187Z,68.94
2019-02-10T14:24:15.069Z,68.84
2019-02-10T14:26:22.903Z,68.87
2019-02-10T14:28:30.034Z,68.84
2019-02-10T14:30:38.120Z,68.92
2019-02-10T14:32:46.350Z,68.79
2019-02-10T14:34:53.661Z,68.82
2019-02-10T14:37:00.818Z,68.62
2019-02-10T14:39:08.025Z,68.73
2019-02-10T14:41:15.087Z,68.70
2019-02-10T14:43:22.195Z,68.93
2019-02-10T14:45:29.501Z,68.98
2019-02-10T14:47:36.530Z,69.00
2019-02-10T14:49:43.828Z,69.06
2019-02-10T14:51:51.385Z,69.15
2019-02-10T14:53:59.824Z,69.22
2019-02-10T14:56:07.197Z,69.49
2019-02-10T14:58:14.414Z,69.29
2019-02-10T15:00:21.554Z,69.49
2019-02-10T15:02:28.844Z,69.58
2019-02-10T15:04:36.394Z,69.73
2019-02-10T15:06:43.394Z,69.67
2019-02-10T15:08:50.650Z,69.80
2019-02-10T15:10:57.783Z,70.02
2019-02-10T15:13:07.518Z,70.40
2019-02-10T15:15:24.887Z,70.31
2019-02-10T15:17:37.844Z,70.45
2019-02-10T15:19:45.944Z,70.59
2019-02-10T15:21:53.998Z,70.64
2019-02-10T15:24:01.177Z,70.79
2019-02-10T15:26:08.346Z,70.97
2019-02-10T15:28:15.835Z,71.09
2019-02-10T15:30:23.140Z,71.20
2019-02-10T15:32:30.103Z,71.34
2019-02-10T15:34:37.513Z,71.46
2019-02-10T15:36:45.027Z,71.55
2019-02-10T15:38:52.311Z,71.67
2019-02-10T15:40:59.733Z,71.91
2019-02-10T15:43:07.861Z,72.02
2019-02-10T15:45:35.576Z,72.03
2019-02-10T15:47:42.925Z,72.00
2019-02-10T15:49:50.296Z,72.20
2019-02-10T15:51:57.722Z,72.14
2019-02-10T15:54:05.143Z,72.20
2019-02-10T15:56:13.101Z,72.49
2019-02-10T15:58:21.477Z,72.50
2019-02-10T16:00:30.025Z,72.81
2019-02-10T16:02:37.401Z,72.95
2019-02-10T16:04:44.471Z,73.43
2019-02-10T16:06:51.836Z,73.67
2019-02-10T16:08:59.433Z,73.57
2019-02-10T16:11:06.535Z,73.68
2019-02-10T16:13:14.244Z,73.78
2019-02-10T16:15:21.747Z,73.58
2019-02-10T16:17:29.600Z,73.88
2019-02-10T16:19:37.240Z,74.06
2019-02-10T16:21:44.722Z,74.49
2019-02-10T16:23:51.867Z,75.04
2019-02-10T16:25:58.921Z,75.36
2019-02-10T16:28:06.443Z,76.84
2019-02-10T16:30:21.273Z,76.71
2019-02-10T16:32:28.460Z,77.15
2019-02-10T16:34:35.843Z,78.12
2019-02-10T16:36:42.989Z,77.99
2019-02-10T16:38:50.340Z,78.50
2019-02-10T16:40:57.487Z,78.72
2019-02-10T16:43:05.209Z,79.10
2019-02-10T16:45:14.141Z,79.39
2019-02-10T16:47:22.882Z,79.87
2019-02-10T16:51:47.704Z,80.41
2019-02-10T16:53:56.031Z,80.43
2019-02-10T16:56:03.430Z,80.84
2019-02-10T16:58:10.983Z,81.12
2019-02-10T17:00:18.888Z,80.91
2019-02-10T17:02:25.942Z,81.30
2019-02-10T17:04:33.056Z,81.24
2019-02-10T17:06:40.836Z,81.67
2019-02-10T17:08:48.500Z,81.64
2019-02-10T17:10:56.236Z,81.96
2019-02-10T17:13:24.378Z,81.98
2019-02-10T17:15:31.757Z,82.36
2019-02-10T17:17:39.296Z,82.30
2019-02-10T17:19:46.597Z,82.52
2019-02-10T17:21:53.876Z,82.79
2019-02-10T17:24:01.046Z,82.63
2019-02-10T17:26:09.219Z,82.73
2019-02-10T17:28:16.898Z,83.16
2019-02-10T17:30:24.387Z,83.40
2019-02-10T17:32:31.795Z,83.54
2019-02-10T17:34:38.866Z,83.94
2019-02-10T17:36:45.927Z,83.96
2019-02-10T17:38:53.076Z,84.56
2019-02-10T17:41:12.937Z,84.44
2019-02-10T17:43:27.837Z,84.32
2019-02-10T17:45:30.048Z,84.60
2019-02-10T17:47:37.298Z,84.66
2019-02-10T17:49:44.647Z,84.78
2019-02-10T17:51:52.227Z,84.90
2019-02-10T17:53:59.447Z,84.97
2019-02-10T17:56:08.274Z,84.86
2019-02-10T17:58:15.568Z,85.11
2019-02-10T18:00:25.741Z,85.11
2019-02-10T18:02:32.930Z,84.99
2019-02-10T18:04:40.532Z,85.06
2019-02-10T18:06:47.643Z,85.27
2019-02-10T18:08:54.972Z,85.20
2019-02-10T18:11:04.515Z,85.35
2019-02-10T18:13:12.023Z,85.32
2019-02-10T18:15:31.072Z,85.20
2019-02-10T18:17:40.021Z,85.02
2019-02-10T18:19:51.995Z,84.93
2019-02-10T18:22:01.367Z,84.91
2019-02-10T18:24:14.135Z,85.10
2019-02-10T18:26:38.064Z,84.92
2019-02-10T18:28:53.129Z,84.63
2019-02-10T18:31:01.899Z,84.49
2019-02-10T18:33:08.698Z,84.58
2019-02-10T18:35:17.522Z,84.62
2019-02-10T18:37:26.395Z,84.70
2019-02-10T18:39:43.815Z,84.77
2019-02-10T18:42:11.385Z,84.97
2019-02-10T18:44:29.449Z,84.87
2019-02-10T18:46:50.316Z,85.07
2019-02-10T18:49:02.133Z,85.24
2019-02-10T18:51:15.645Z,85.44
2019-02-10T18:53:40.645Z,85.52
2019-02-10T18:55:47.715Z,85.59
2019-02-10T18:58:13.815Z,85.40
2019-02-10T19:00:28.304Z,85.52
2019-02-10T19:02:48.867Z,85.54
2019-02-10T19:05:00.594Z,85.04
2019-02-10T19:07:16.638Z,84.98
2019-02-10T19:09:28.245Z,85.17
2019-02-10T19:11:55.615Z,85.12
2019-02-10T19:14:04.605Z,85.27
2019-02-10T19:16:22.144Z,85.28
2019-02-10T19:18:41.132Z,85.64
2019-02-10T19:20:59.341Z,85.32
2019-02-10T19:23:24.354Z,85.28
2019-02-10T19:25:49.326Z,85.29
2019-02-10T19:27:58.140Z,85.07
2019-02-10T19:30:09.359Z,85.24
2019-02-10T19:32:20.176Z,85.16
2019-02-10T19:34:46.462Z,84.56
2019-02-10T19:37:02.352Z,84.53
2019-02-10T19:39:23.571Z,84.04
2019-02-10T19:41:34.022Z,83.79
2019-02-10T19:43:58.045Z,83.47
2019-02-10T19:46:23.623Z,83.12
2019-02-10T19:48:49.212Z,83.12
2019-02-10T19:50:58.943Z,83.32
2019-02-10T19:53:08.815Z,82.78
2019-02-10T19:55:20.803Z,83.14
2019-02-10T19:57:41.665Z,82.91
2019-02-10T19:59:56.555Z,83.22
2019-02-10T20:02:11.614Z,83.73
2019-02-10T20:04:36.607Z,83.30
2019-02-10T20:06:45.254Z,83.42
2019-02-10T20:08:52.345Z,83.24
2019-02-10T20:11:08.785Z,83.24
2019-02-10T20:13:20.845Z,83.54
2019-02-10T20:15:29.616Z,83.88
2019-02-10T20:17:43.022Z,84.02
2019-02-10T20:20:04.994Z,84.39
2019-02-10T20:22:13.865Z,84.27
2019-02-10T20:24:22.609Z,84.15
2019-02-10T20:26:40.635Z,84.13
2019-02-10T20:28:55.031Z,84.29
2019-02-10T20:31:08.006Z,84.22
2019-02-10T20:33:20.683Z,84.61
2019-02-10T20:35:38.863Z,84.67
2019-02-10T20:37:47.974Z,84.33
2019-02-10T20:39:56.743Z,84.78
2019-02-10T20:42:12.636Z,84.27
2019-02-10T20:44:27.344Z,84.67
2019-02-10T20:46:36.375Z,84.42
2019-02-10T20:48:43.258Z,84.74
2019-02-10T20:50:50.183Z,84.91
2019-02-10T20:52:59.965Z,84.94
2019-02-10T20:55:12.462Z,84.68
2019-02-10T20:57:27.270Z,84.48
2019-02-10T20:59:39.081Z,84.86
2019-02-10T21:01:59.810Z,84.70
2019-02-10T21:04:21.005Z,84.76
2019-02-10T21:06:44.736Z,84.74
2019-02-10T21:08:53.357Z,84.70
2019-02-10T21:11:08.196Z,84.78
2019-02-10T21:13:16.886Z,84.68
2019-02-10T21:15:39.213Z,84.33
2019-02-10T21:18:03.126Z,84.09
2019-02-10T21:20:12.186Z,84.15
2019-02-10T21:22:22.655Z,84.26
2019-02-10T21:24:47.806Z,83.72
2019-02-10T21:27:11.606Z,83.94
2019-02-10T21:29:23.253Z,84.05
2019-02-10T21:31:32.389Z,84.03
2019-02-10T21:33:44.307Z,84.19
2019-02-10T21:36:09.266Z,84.48
2019-02-10T21:38:27.351Z,84.42
2019-02-10T21:40:54.508Z,84.79
2019-02-10T21:43:12.820Z,84.90
2019-02-10T21:45:24.987Z,85.11
2019-02-10T21:47:33.966Z,85.17
2019-02-10T21:49:41.650Z,85.63
2019-02-10T21:51:49.341Z,85.42
2019-02-10T21:53:56.385Z,85.81
2019-02-10T21:56:03.650Z,85.31
2019-02-10T21:58:11.445Z,85.55
2019-02-10T22:00:18.787Z,85.62
2019-02-10T22:02:26.232Z,85.94
2019-02-10T22:04:33.505Z,85.99
2019-02-10T22:06:40.546Z,86.54
2019-02-10T22:08:47.826Z,86.92
2019-02-10T22:10:54.846Z,86.26
2019-02-10T22:13:01.906Z,86.54
2019-02-10T22:15:11.533Z,86.40
2019-02-10T22:17:18.965Z,86.81
2019-02-10T22:19:26.005Z,86.78
2019-02-10T22:21:34.390Z,86.91
2019-02-10T22:23:41.006Z,86.98
2019-02-10T22:25:48.025Z,87.27
2019-02-10T22:27:56.293Z,87.32
2019-02-10T22:30:04.826Z,87.29
2019-02-10T22:32:11.686Z,87.47
2019-02-10T22:34:18.446Z,87.50
2019-02-10T22:36:25.125Z,87.84
2019-02-10T22:38:32.345Z,87.86
2019-02-10T22:40:39.085Z,87.69
2019-02-10T22:42:46.625Z,87.81
2019-02-10T22:44:53.506Z,88.02
2019-02-10T22:47:00.146Z,87.94
2019-02-10T22:49:06.667Z,87.74
2019-02-10T22:51:13.527Z,87.67
2019-02-10T22:53:20.308Z,87.68
2019-02-10T22:55:31.446Z,87.58
2019-02-10T22:57:38.407Z,87.32
2019-02-10T22:59:45.046Z,87.63
2019-02-10T23:01:51.805Z,87.39
2019-02-10T23:03:58.686Z,87.32
2019-02-10T23:06:05.846Z,87.36
2019-02-10T23:08:12.767Z,87.64
2019-02-10T23:10:21.046Z,87.50
2019-02-10T23:12:29.385Z,87.24
2019-02-10T23:14:36.169Z,87.43
2019-02-10T23:16:53.713Z,87.29
2019-02-10T23:19:00.425Z,87.12
2019-02-10T23:21:07.726Z,87.13
2019-02-10T23:23:14.546Z,87.05
2019-02-10T23:25:22.506Z,87.17
2019-02-10T23:27:29.375Z,86.94
2019-02-10T23:29:36.408Z,86.96
2019-02-10T23:31:44.066Z,87.25
2019-02-10T23:33:50.852Z,87.08
2019-02-10T23:35:57.350Z,87.23
2019-02-10T23:38:05.706Z,87.09
2019-02-10T23:40:12.986Z,87.17
2019-02-10T23:42:20.026Z,87.28
2019-02-10T23:44:26.786Z,87.29
2019-02-10T23:46:33.746Z,87.21
2019-02-10T23:48:40.528Z,87.19
2019-02-10T23:50:47.294Z,87.14
2019-02-10T23:52:56.000Z,87.24
2019-02-10T23:55:02.678Z,87.40
2019-02-10T23:57:09.619Z,87.48
2019-02-10T23:59:16.163Z,87.34
